createdAt,value
2022-09-21T00:01:43.940Z,99.90
2022-09-21T00:04:12.508Z,99.90
2022-09-21T00:06:42.735Z,99.90
2022-09-21T00:09:11.482Z,99.90
2022-09-21T00:11:40.134Z,99.90
2022-09-21T00:14:12.262Z,99.90
2022-09-21T00:16:41.914Z,99.90
2022-09-21T00:19:11.996Z,99.90
2022-09-21T00:21:42.292Z,99.90
2022-09-21T00:24:11.070Z,99.90
2022-09-21T00:26:39.823Z,99.90
2022-09-21T00:29:08.405Z,99.90
2022-09-21T00:31:37.161Z,99.90
2022-09-21T00:34:07.949Z,99.90
2022-09-21T00:36:37.164Z,99.90
2022-09-21T00:39:07.063Z,99.90
2022-09-21T00:41:36.405Z,99.90
2022-09-21T00:44:26.270Z,99.90
2022-09-21T00:46:57.761Z,99.90
2022-09-21T00:49:27.999Z,99.90
2022-09-21T00:51:58.576Z,99.90
2022-09-21T00:54:33.693Z,99.90
2022-09-21T00:57:03.749Z,99.90
2022-09-21T00:59:33.581Z,99.90
2022-09-21T01:02:02.235Z,99.90
2022-09-21T01:04:31.776Z,99.90
2022-09-21T01:07:04.219Z,99.90
2022-09-21T01:09:35.045Z,99.90
2022-09-21T01:12:18.514Z,99.90
2022-09-21T01:15:00.418Z,99.90
2022-09-21T01:17:37.311Z,99.90
2022-09-21T01:20:43.240Z,99.90
2022-09-21T01:23:33.661Z,99.90
2022-09-21T01:26:12.883Z,99.90
2022-09-21T01:29:10.844Z,99.90
2022-09-21T01:31:43.406Z,99.90
2022-09-21T01:34:16.547Z,99.90
2022-09-21T01:36:48.574Z,99.90
2022-09-21T01:39:20.786Z,99.90
2022-09-21T01:41:52.049Z,99.90
2022-09-21T01:44:24.986Z,99.90
2022-09-21T01:46:54.936Z,99.90
2022-09-21T01:49:27.036Z,99.90
2022-09-21T01:51:59.768Z,99.90
2022-09-21T01:54:33.636Z,99.90
2022-09-21T01:57:07.393Z,99.90
2022-09-21T01:59:48.791Z,99.90
2022-09-21T02:02:21.867Z,99.90
2022-09-21T02:04:51.126Z,99.90
2022-09-21T02:07:20.607Z,99.90
2022-09-21T02:09:49.656Z,99.90
2022-09-21T02:12:19.367Z,99.90
2022-09-21T02:14:51.256Z,99.90
2022-09-21T02:17:35.127Z,99.90
2022-09-21T02:20:17.581Z,99.90
2022-09-21T02:22:57.970Z,99.90
2022-09-21T02:25:38.272Z,99.90
2022-09-21T02:28:13.376Z,99.90
2022-09-21T02:30:50.777Z,99.90
2022-09-21T02:33:26.036Z,99.90
2022-09-21T02:36:02.102Z,99.90
2022-09-21T02:38:38.111Z,99.90
2022-09-21T02:41:13.044Z,99.90
2022-09-21T02:43:45.563Z,99.90
2022-09-21T02:46:19.008Z,99.90
2022-09-21T02:48:50.471Z,99.90
2022-09-21T02:51:22.176Z,99.90
2022-09-21T02:53:53.106Z,99.90
2022-09-21T02:56:22.805Z,99.90
2022-09-21T02:58:56.897Z,99.90
2022-09-21T03:01:28.095Z,99.90
2022-09-21T03:03:56.468Z,99.90
2022-09-21T03:06:24.929Z,99.90
2022-09-21T03:08:53.657Z,99.90
2022-09-21T03:11:22.402Z,99.90
2022-09-21T03:13:50.892Z,99.90
2022-09-21T03:16:20.206Z,99.90
2022-09-21T03:18:50.211Z,99.90
2022-09-21T03:21:18.791Z,99.90
2022-09-21T03:23:47.404Z,99.90
2022-09-21T03:26:15.694Z,99.90
2022-09-21T03:28:44.263Z,99.90
2022-09-21T03:31:13.028Z,99.90
2022-09-21T03:33:41.386Z,99.90
2022-09-21T03:36:11.560Z,99.90
2022-09-21T03:38:40.266Z,99.90
2022-09-21T03:41:08.709Z,99.90
2022-09-21T03:43:37.112Z,99.90
2022-09-21T03:46:06.009Z,99.90
2022-09-21T03:48:34.579Z,99.90
2022-09-21T03:51:03.084Z,99.90
2022-09-21T03:53:33.363Z,99.90
2022-09-21T03:56:02.290Z,99.90
2022-09-21T03:58:30.835Z,99.90
2022-09-21T04:01:03.830Z,99.90
2022-09-21T04:03:32.713Z,99.90
2022-09-21T04:06:01.754Z,99.90
2022-09-21T04:08:33.357Z,99.90
2022-09-21T04:11:09.994Z,99.90
2022-09-21T04:13:38.486Z,99.90
2022-09-21T04:16:07.266Z,99.90
2022-09-21T04:18:35.702Z,99.90
2022-09-21T04:21:04.060Z,99.90
2022-09-21T04:23:33.888Z,99.90
2022-09-21T04:26:03.955Z,99.90
2022-09-21T04:28:32.897Z,99.90
2022-09-21T04:31:01.566Z,99.90
2022-09-21T04:33:31.037Z,99.90
2022-09-21T04:35:59.490Z,99.90
2022-09-21T04:38:28.093Z,99.90
2022-09-21T04:40:57.344Z,99.90
2022-09-21T04:43:27.620Z,99.90
2022-09-21T04:45:56.279Z,99.90
2022-09-21T04:48:24.784Z,99.90
2022-09-21T04:50:53.120Z,99.90
2022-09-21T04:53:21.617Z,99.90
2022-09-21T04:55:50.313Z,99.90
2022-09-21T04:58:23.740Z,99.90
2022-09-21T05:00:56.699Z,99.90
2022-09-21T05:03:26.637Z,99.90
2022-09-21T05:05:56.876Z,99.90
2022-09-21T05:08:40.787Z,99.90
2022-09-21T05:11:13.787Z,99.90
2022-09-21T05:13:42.353Z,99.90
2022-09-21T05:16:12.424Z,99.90
2022-09-21T05:18:40.977Z,99.90
2022-09-21T05:21:10.673Z,99.90
2022-09-21T05:23:39.390Z,99.90
2022-09-21T05:26:08.555Z,99.90
2022-09-21T05:28:40.091Z,99.90
2022-09-21T05:31:23.426Z,99.90
2022-09-21T05:33:55.655Z,99.90
2022-09-21T05:36:41.200Z,99.90
2022-09-21T05:39:10.030Z,99.90
2022-09-21T05:41:39.293Z,99.90
2022-09-21T05:44:08.525Z,99.90
2022-09-21T05:46:40.970Z,99.90
2022-09-21T05:49:18.446Z,99.90
2022-09-21T05:51:57.694Z,99.90
2022-09-21T05:54:39.076Z,99.90
2022-09-21T05:57:14.899Z,99.90
2022-09-21T05:59:56.513Z,99.90
2022-09-21T06:02:42.706Z,99.90
2022-09-21T06:05:13.031Z,99.90
2022-09-21T06:07:41.553Z,99.90
2022-09-21T06:10:11.188Z,99.90
2022-09-21T06:12:39.977Z,99.90
2022-09-21T06:15:12.206Z,99.90
2022-09-21T06:17:42.677Z,99.90
2022-09-21T06:20:11.455Z,99.90
2022-09-21T06:22:39.843Z,99.90
2022-09-21T06:25:09.036Z,99.90
2022-09-21T06:27:37.382Z,99.90
2022-09-21T06:30:06.996Z,99.90
2022-09-21T06:32:35.605Z,99.90
2022-09-21T06:35:05.745Z,99.90
2022-09-21T06:37:34.026Z,99.90
2022-09-21T06:40:02.807Z,99.90
2022-09-21T06:42:31.380Z,99.90
2022-09-21T06:44:59.927Z,99.90
2022-09-21T06:47:28.487Z,99.90
2022-09-21T06:49:57.038Z,99.90
2022-09-21T06:52:27.078Z,99.90
2022-09-21T06:54:55.399Z,99.90
2022-09-21T06:57:23.939Z,99.90
2022-09-21T06:59:52.455Z,99.90
2022-09-21T07:02:21.243Z,99.90
2022-09-21T07:04:49.771Z,99.90
2022-09-21T07:07:18.313Z,99.90
2022-09-21T07:12:37.284Z,99.90
2022-09-21T07:15:07.879Z,99.90
2022-09-21T07:17:37.992Z,99.90
2022-09-21T07:20:08.896Z,99.90
2022-09-21T07:22:37.989Z,99.90
2022-09-21T07:25:08.256Z,99.90
2022-09-21T07:27:36.774Z,99.90
2022-09-21T07:30:06.488Z,99.90
2022-09-21T07:32:35.055Z,99.90
2022-09-21T07:35:04.319Z,99.90
2022-09-21T07:37:33.359Z,99.90
2022-09-21T07:40:05.281Z,99.90
2022-09-21T07:42:35.580Z,99.90
2022-09-21T07:45:04.780Z,99.90
2022-09-21T07:47:33.502Z,99.90
2022-09-21T07:50:02.226Z,99.90
2022-09-21T07:52:30.588Z,99.90
2022-09-21T07:54:59.145Z,99.90
2022-09-21T07:57:45.797Z,99.90
2022-09-21T08:00:16.225Z,99.90
2022-09-21T08:02:47.638Z,99.90
2022-09-21T08:05:16.788Z,99.90
2022-09-21T08:07:45.170Z,99.20
2022-09-21T08:10:13.658Z,98.80
2022-09-21T08:12:43.938Z,98.20
2022-09-21T08:15:37.056Z,97.70
2022-09-21T08:18:07.206Z,97.30
2022-09-21T08:20:35.806Z,96.80
2022-09-21T08:23:05.072Z,96.20
2022-09-21T08:25:34.408Z,95.90
2022-09-21T08:28:07.348Z,95.50
2022-09-21T08:30:38.194Z,95.40
2022-09-21T08:33:08.290Z,95.50
2022-09-21T08:35:37.441Z,95.60
2022-09-21T08:38:06.353Z,95.70
2022-09-21T08:40:35.401Z,96.10
2022-09-21T08:43:08.997Z,96.20
2022-09-21T08:45:43.729Z,96.50
2022-09-21T08:48:19.715Z,96.90
2022-09-21T08:50:55.172Z,97.20
2022-09-21T08:53:27.975Z,97.40
2022-09-21T08:55:57.791Z,97.80
2022-09-21T08:58:28.585Z,97.90
2022-09-21T09:01:10.266Z,98.20
2022-09-21T09:04:17.746Z,98.50
2022-09-21T09:06:53.656Z,99.00
2022-09-21T09:09:40.994Z,98.90
2022-09-21T09:12:22.578Z,99.10
2022-09-21T09:15:07.747Z,99.50
2022-09-21T09:17:48.528Z,99.70
2022-09-21T09:20:20.694Z,99.90
2022-09-21T09:23:00.929Z,99.90
2022-09-21T09:25:36.422Z,99.90
2022-09-21T09:28:17.207Z,99.90
2022-09-21T09:30:56.852Z,99.90
2022-09-21T09:33:28.788Z,99.90
2022-09-21T09:36:03.202Z,99.90
2022-09-21T09:38:38.396Z,99.90
2022-09-21T09:41:23.461Z,99.90
2022-09-21T09:44:05.827Z,99.80
2022-09-21T09:46:47.096Z,99.80
2022-09-21T09:49:26.133Z,99.80
2022-09-21T09:51:54.823Z,99.80
2022-09-21T09:54:27.879Z,99.90
2022-09-21T09:56:56.424Z,99.90
2022-09-21T09:59:31.574Z,99.90
2022-09-21T10:02:03.143Z,99.40
2022-09-21T10:04:31.833Z,99.60
2022-09-21T10:07:00.134Z,99.10
2022-09-21T10:09:32.850Z,98.20
2022-09-21T10:12:09.478Z,97.30
2022-09-21T10:14:39.175Z,97.20
2022-09-21T10:17:09.342Z,97.30
2022-09-21T10:19:38.257Z,97.80
2022-09-21T10:22:07.309Z,98.90
2022-09-21T10:24:40.725Z,99.90
2022-09-21T10:27:15.417Z,99.90
2022-09-21T10:29:46.105Z,99.90
2022-09-21T10:32:26.848Z,99.90
2022-09-21T10:35:13.622Z,99.90
2022-09-21T10:37:43.665Z,99.90
2022-09-21T10:40:36.620Z,99.90
2022-09-21T10:43:05.725Z,99.90
2022-09-21T10:45:38.139Z,99.90
2022-09-21T10:48:14.534Z,99.90
2022-09-21T10:50:45.653Z,99.90
2022-09-21T10:53:21.027Z,99.90
2022-09-21T10:56:14.497Z,99.90
2022-09-21T10:59:12.812Z,99.90
2022-09-21T11:01:45.974Z,99.90
2022-09-21T11:04:20.653Z,99.90
2022-09-21T11:06:52.687Z,99.90
2022-09-21T11:09:26.511Z,99.90
2022-09-21T11:12:00.886Z,99.90
2022-09-21T11:14:42.338Z,99.90
2022-09-21T11:17:15.073Z,99.90
2022-09-21T11:19:49.751Z,99.90
2022-09-21T11:22:25.807Z,99.90
2022-09-21T11:25:01.561Z,99.90
2022-09-21T11:27:36.335Z,99.90
2022-09-21T11:30:11.330Z,99.90
2022-09-21T11:32:59.595Z,99.90
2022-09-21T11:35:47.434Z,99.90
2022-09-21T11:38:30.999Z,99.90
2022-09-21T11:41:28.545Z,99.90
2022-09-21T11:44:24.963Z,99.90
2022-09-21T11:47:05.604Z,99.90
2022-09-21T11:50:26.434Z,99.90
2022-09-21T11:53:07.936Z,99.90
2022-09-21T11:55:52.867Z,99.90
2022-09-21T11:58:29.643Z,99.90
2022-09-21T12:01:09.406Z,99.90
2022-09-21T12:03:53.863Z,99.90
2022-09-21T12:06:44.643Z,99.90
2022-09-21T12:09:53.719Z,99.90
2022-09-21T12:12:26.000Z,99.90
2022-09-21T12:15:00.032Z,99.90
2022-09-21T12:17:39.553Z,99.90
2022-09-21T12:20:17.630Z,99.90
2022-09-21T12:22:47.912Z,99.90
2022-09-21T12:25:19.758Z,99.90
2022-09-21T12:27:51.778Z,99.90
2022-09-21T12:30:22.309Z,99.90
2022-09-21T12:33:00.050Z,99.90
2022-09-21T12:35:35.593Z,99.90
2022-09-21T12:38:12.009Z,99.90
2022-09-21T12:40:49.985Z,99.90
2022-09-21T12:43:30.107Z,99.90
2022-09-21T12:46:02.879Z,99.90
2022-09-21T12:48:36.589Z,99.90
2022-09-21T12:51:13.421Z,99.90
2022-09-21T12:53:50.772Z,99.90
2022-09-21T12:56:33.853Z,99.90
2022-09-21T12:59:14.777Z,99.90
2022-09-21T13:01:52.241Z,99.90
2022-09-21T13:04:38.809Z,99.90
2022-09-21T13:07:34.446Z,99.90
2022-09-21T13:10:15.427Z,99.90
2022-09-21T13:12:46.322Z,99.90
2022-09-21T13:15:18.518Z,99.90
2022-09-21T13:17:47.280Z,99.90
2022-09-21T13:20:22.543Z,99.90
2022-09-21T13:23:00.830Z,99.90
2022-09-21T13:25:31.305Z,99.90
2022-09-21T13:28:19.823Z,99.90
2022-09-21T13:30:50.179Z,99.90
2022-09-21T13:33:39.036Z,99.90
2022-09-21T13:36:34.143Z,99.90
2022-09-21T13:39:18.181Z,99.90
2022-09-21T13:42:03.922Z,99.90
2022-09-21T13:44:46.404Z,99.90
2022-09-21T13:47:15.449Z,99.90
2022-09-21T13:49:54.859Z,99.90
2022-09-21T13:52:40.393Z,99.90
2022-09-21T13:55:29.240Z,99.90
2022-09-21T13:58:04.815Z,99.90
2022-09-21T14:00:40.972Z,99.90
2022-09-21T14:03:23.133Z,99.90
2022-09-21T14:05:54.612Z,99.90
2022-09-21T14:08:31.799Z,99.90
2022-09-21T14:11:03.234Z,99.90
2022-09-21T14:13:35.712Z,99.90
2022-09-21T14:16:51.845Z,99.90
2022-09-21T14:20:09.519Z,99.90
2022-09-21T14:22:41.123Z,99.90
2022-09-21T14:25:49.217Z,99.90
2022-09-21T14:28:19.732Z,99.90
2022-09-21T14:30:55.593Z,99.90
2022-09-21T14:33:33.233Z,99.90
2022-09-21T14:36:07.834Z,99.90
2022-09-21T14:38:55.816Z,99.90
2022-09-21T14:41:31.397Z,99.90
2022-09-21T14:44:01.139Z,99.90
2022-09-21T14:46:55.680Z,99.90
2022-09-21T14:49:48.813Z,99.90
2022-09-21T14:52:32.423Z,99.90
2022-09-21T14:55:10.738Z,99.90
2022-09-21T14:58:00.881Z,99.90
2022-09-21T15:00:39.782Z,99.90
2022-09-21T15:03:46.645Z,99.90
2022-09-21T15:06:41.189Z,99.90
2022-09-21T15:09:47.288Z,99.90
2022-09-21T15:12:19.980Z,99.90
2022-09-21T15:14:58.377Z,99.90
2022-09-21T15:17:30.001Z,99.90
2022-09-21T15:20:03.628Z,99.90
2022-09-21T15:22:32.598Z,99.90
2022-09-21T15:25:06.020Z,99.90
2022-09-21T15:27:36.220Z,99.90
2022-09-21T15:30:08.066Z,99.90
2022-09-21T15:32:41.784Z,99.90
2022-09-21T15:35:20.026Z,99.90
2022-09-21T15:37:50.025Z,99.90
2022-09-21T15:40:21.781Z,99.90
2022-09-21T15:43:01.524Z,99.90
2022-09-21T15:45:34.701Z,99.90
2022-09-21T15:48:04.328Z,99.90
2022-09-21T15:50:33.432Z,99.90
2022-09-21T15:53:06.758Z,99.90
2022-09-21T15:55:35.298Z,99.90
2022-09-21T15:58:04.381Z,99.90
2022-09-21T16:00:38.764Z,99.90
2022-09-21T16:03:09.830Z,99.90
2022-09-21T16:05:47.011Z,99.90
2022-09-21T16:08:31.124Z,99.90
2022-09-21T16:11:18.980Z,99.90
2022-09-21T16:14:06.180Z,99.90
2022-09-21T16:17:06.639Z,99.90
2022-09-21T16:19:46.145Z,99.90
2022-09-21T16:22:17.621Z,99.90
2022-09-21T16:24:50.486Z,99.90
2022-09-21T16:27:21.237Z,99.90
2022-09-21T16:29:51.787Z,99.90
2022-09-21T16:32:33.448Z,99.90
2022-09-21T16:35:25.304Z,99.90
2022-09-21T16:37:57.528Z,99.90
2022-09-21T16:40:27.039Z,99.90
2022-09-21T16:42:55.867Z,99.90
2022-09-21T16:45:29.685Z,99.90
2022-09-21T16:47:59.876Z,99.90
2022-09-21T16:50:28.466Z,99.90
2022-09-21T16:52:56.760Z,99.90
2022-09-21T16:55:28.891Z,99.90
2022-09-21T16:58:00.248Z,99.90
2022-09-21T17:00:32.957Z,99.90
2022-09-21T17:03:02.766Z,99.90
2022-09-21T17:05:31.559Z,99.90
2022-09-21T17:08:00.842Z,99.90
2022-09-21T17:10:32.963Z,99.90
2022-09-21T17:13:05.806Z,99.90
2022-09-21T17:15:35.966Z,99.90
2022-09-21T17:18:06.454Z,99.90
2022-09-21T17:20:36.954Z,99.90
2022-09-21T17:23:06.063Z,99.90
2022-09-21T17:25:36.110Z,99.90
2022-09-21T17:28:12.458Z,99.90
2022-09-21T17:30:41.624Z,99.90
2022-09-21T17:33:11.978Z,99.90
2022-09-21T17:35:42.139Z,99.90
2022-09-21T17:38:14.304Z,99.90
2022-09-21T17:40:43.692Z,99.90
2022-09-21T17:43:34.304Z,99.90
2022-09-21T17:46:09.074Z,99.90
2022-09-21T17:48:41.200Z,99.90
2022-09-21T17:51:10.894Z,99.90
2022-09-21T17:53:39.178Z,99.90
2022-09-21T17:56:23.405Z,99.90
2022-09-21T17:58:58.047Z,99.90
2022-09-21T18:01:33.847Z,99.90
2022-09-21T18:04:05.170Z,99.90
2022-09-21T18:06:34.871Z,99.90
2022-09-21T18:09:04.045Z,99.90
2022-09-21T18:12:17.542Z,99.90
2022-09-21T18:14:55.742Z,99.90
2022-09-21T18:17:40.630Z,99.90
2022-09-21T18:20:23.646Z,99.90
2022-09-21T18:22:59.534Z,99.90
2022-09-21T18:25:32.517Z,99.90
2022-09-21T18:28:08.059Z,99.90
2022-09-21T18:30:41.270Z,99.90
2022-09-21T18:33:21.039Z,99.90
2022-09-21T18:36:01.615Z,99.90
2022-09-21T18:38:36.481Z,99.90
2022-09-21T18:41:23.192Z,99.90
2022-09-21T18:44:05.373Z,99.90
2022-09-21T18:46:43.697Z,99.90
2022-09-21T18:49:19.195Z,99.90
2022-09-21T18:51:55.211Z,99.90
2022-09-21T18:54:25.645Z,99.90
2022-09-21T18:56:55.459Z,99.90
2022-09-21T18:59:27.340Z,99.90
2022-09-21T19:01:59.270Z,99.90
2022-09-21T19:04:29.952Z,99.90
2022-09-21T19:07:08.639Z,99.90
2022-09-21T19:09:45.493Z,99.90
2022-09-21T19:12:25.306Z,99.90
2022-09-21T19:15:10.169Z,99.90
2022-09-21T19:17:58.550Z,99.90
2022-09-21T19:20:38.268Z,99.90
2022-09-21T19:23:16.683Z,99.90
2022-09-21T19:25:49.934Z,99.90
2022-09-21T19:28:54.516Z,99.90
2022-09-21T19:31:23.087Z,99.90
2022-09-21T19:33:52.161Z,99.90
2022-09-21T19:36:21.167Z,99.90
2022-09-21T19:38:51.727Z,99.90
2022-09-21T19:41:35.105Z,99.90
2022-09-21T19:44:18.564Z,99.90
2022-09-21T19:46:58.068Z,99.90
2022-09-21T19:49:35.817Z,99.90
2022-09-21T19:52:06.622Z,99.90
2022-09-21T19:54:53.677Z,99.90
2022-09-21T19:57:41.372Z,99.90
2022-09-21T20:00:13.778Z,99.90
2022-09-21T20:02:49.998Z,99.90
2022-09-21T20:05:23.336Z,99.90
2022-09-21T20:07:59.279Z,99.90
2022-09-21T20:10:43.402Z,99.90
2022-09-21T20:13:21.820Z,99.90
2022-09-21T20:15:56.980Z,99.90
2022-09-21T20:18:32.119Z,99.90
2022-09-21T20:21:00.832Z,99.90
2022-09-21T20:23:30.305Z,99.90
2022-09-21T20:26:05.204Z,99.90
2022-09-21T20:28:34.774Z,99.90
2022-09-21T20:31:04.279Z,99.90
2022-09-21T20:33:32.827Z,99.90
2022-09-21T20:36:02.504Z,99.90
2022-09-21T20:38:31.291Z,99.90
2022-09-21T20:41:01.214Z,99.90
2022-09-21T20:43:32.623Z,99.90
2022-09-21T20:46:03.479Z,99.90
2022-09-21T20:48:32.183Z,99.90
2022-09-21T20:51:06.203Z,99.90
2022-09-21T20:53:35.058Z,99.90
2022-09-21T20:56:05.172Z,99.90
2022-09-21T20:58:35.750Z,99.90
2022-09-21T21:01:05.466Z,99.90
2022-09-21T21:03:34.317Z,99.90
2022-09-21T21:06:11.022Z,99.90
2022-09-21T21:08:40.313Z,99.90
2022-09-21T21:11:11.515Z,99.90
2022-09-21T21:13:40.089Z,99.90
2022-09-21T21:16:12.112Z,99.90
2022-09-21T21:18:41.557Z,99.90
2022-09-21T21:21:11.189Z,99.90
2022-09-21T21:23:53.632Z,99.90
2022-09-21T21:26:38.271Z,99.90
2022-09-21T21:29:12.353Z,99.90
2022-09-21T21:31:40.999Z,99.90
2022-09-21T21:34:09.675Z,99.90
2022-09-21T21:36:37.977Z,99.90
2022-09-21T21:39:06.800Z,99.90
2022-09-21T21:41:37.004Z,99.90
2022-09-21T21:44:05.483Z,99.90
2022-09-21T21:46:34.167Z,99.90
2022-09-21T21:49:02.602Z,99.90
2022-09-21T21:51:31.214Z,99.90
2022-09-21T21:54:00.015Z,99.90
2022-09-21T21:56:29.709Z,99.90
2022-09-21T21:58:59.379Z,99.90
2022-09-21T22:01:29.544Z,99.90
2022-09-21T22:03:59.620Z,99.90
2022-09-21T22:06:29.333Z,99.90
2022-09-21T22:08:58.808Z,99.90
2022-09-21T22:11:29.080Z,99.90
2022-09-21T22:13:58.500Z,99.90
2022-09-21T22:16:29.868Z,99.90
2022-09-21T22:18:59.248Z,99.90
2022-09-21T22:21:29.789Z,99.90
2022-09-21T22:24:00.305Z,99.90
2022-09-21T22:26:30.408Z,99.90
2022-09-21T22:29:02.071Z,99.90
2022-09-21T22:31:34.123Z,99.90
2022-09-21T22:34:02.685Z,99.90
2022-09-21T22:36:33.163Z,99.90
2022-09-21T22:39:02.032Z,99.90
2022-09-21T22:41:32.852Z,99.90
2022-09-21T22:44:01.304Z,99.90
2022-09-21T22:46:32.486Z,99.90
2022-09-21T22:49:01.449Z,99.90
2022-09-21T22:51:31.022Z,99.90
2022-09-21T22:53:59.815Z,99.90
2022-09-21T22:56:30.404Z,99.90
2022-09-21T22:59:00.261Z,99.90
2022-09-21T23:01:30.875Z,99.90
2022-09-21T23:04:02.414Z,99.90
2022-09-21T23:06:34.881Z,99.90
2022-09-21T23:09:06.531Z,99.90
2022-09-21T23:11:37.114Z,99.90
2022-09-21T23:14:06.278Z,99.90
2022-09-21T23:16:34.916Z,99.90
2022-09-21T23:19:05.290Z,99.90
2022-09-21T23:21:33.707Z,99.90
2022-09-21T23:24:05.463Z,99.90
2022-09-21T23:26:34.704Z,99.90
2022-09-21T23:29:05.323Z,99.90
2022-09-21T23:31:33.960Z,99.90
2022-09-21T23:34:08.648Z,99.90
2022-09-21T23:36:37.853Z,99.90
2022-09-21T23:39:08.498Z,99.90
2022-09-21T23:41:37.896Z,99.90
2022-09-21T23:44:07.751Z,99.90
2022-09-21T23:46:38.201Z,99.90
2022-09-21T23:49:08.280Z,99.90
2022-09-21T23:51:37.018Z,99.90
2022-09-21T23:54:05.762Z,99.90
2022-09-21T23:56:34.642Z,99.90
2022-09-21T23:59:03.542Z,99.90
